logo
Search for airport 
image banner adimage banner adimage banner ad
image banner ad

WMAU - Mersing

Located in Mersing, Malaysia

ICAO - WMAU, IATA - MEP

Data provided by Airmate  

General information

Coordinates: N2°23'22" E103°52'27"
Elevation is 10 feet MSL.
Magnetic variation is 0° East
View others Airports in Johor

Operational data

Special qualification required
Current time UTC:
Current local time:
Weather
METAR: WMAU 171300Z 20003KT 110V240 9999 SCT025 27/25 Q1010
View NOTAMs / SUP AIP / TFR affecting this airport [VIEW]
Communications frequencies: [VIEW]

Runways:

RWY identifierQFULength (ft)Width (ft)SurfaceLDA (ft)
15148°161299GRAS
33328°161299GRAS

Airport contact information

Address: Mersing Malaysia

Satellite view of WMAU